Time;durP1;ratioP1;P1;durP2;ratioP2;P2;SDS_P1;SDS_P2;PMS_P1;PMS_P2;Temp;Humidity;BMP_temperature;BMP_pressure;BME280_temperature;BME280_humidity;BME280_pressure;Samples;Min_cycle;Max_cycle;Signal;HPM_P1;HPM_P2
2022/11/10 00:01:49;;;;;;;14.20;3.42;;;;;;;9.10;100.00;101574.38;4993055;28;20034;-66
2022/11/10 00:04:14;;;;;;;11.52;2.78;;;;;;;9.09;100.00;101593.28;4974749;28;20486;-65
2022/11/10 00:06:40;;;;;;;7.60;2.67;;;;;;;9.09;100.00;101585.53;4975121;28;20027;-66
2022/11/10 00:09:05;;;;;;;11.77;3.47;;;;;;;9.06;100.00;101579.31;4977192;28;20459;-66
2022/11/10 00:11:31;;;;;;;12.38;4.00;;;;;;;9.06;100.00;101585.38;4968347;28;20372;-66
2022/11/10 00:17:00;;;;;;;9.82;2.95;;;;;;;9.05;100.00;101586.19;4974120;28;20085;-66
2022/11/10 00:19:26;;;;;;;10.55;3.00;;;;;;;9.03;100.00;101582.63;4961901;28;20045;-66
2022/11/10 00:21:52;;;;;;;8.38;2.90;;;;;;;9.03;100.00;101592.09;4961972;28;20038;-66
2022/11/10 00:24:17;;;;;;;10.02;2.80;;;;;;;9.00;100.00;101582.47;4972361;28;20031;-66
2022/11/10 00:26:42;;;;;;;8.02;2.42;;;;;;;9.00;100.00;101587.66;4974259;28;20463;-66
2022/11/10 00:29:08;;;;;;;7.85;3.55;;;;;;;8.95;100.00;101583.94;4960513;28;20022;-66
2022/11/10 00:31:33;;;;;;;14.00;3.45;;;;;;;8.95;100.00;101583.94;4974201;28;20030;-66
2022/11/10 00:33:58;;;;;;;9.68;2.40;;;;;;;8.93;100.00;101593.31;4974704;28;20049;-66
2022/11/10 00:36:24;;;;;;;10.70;4.18;;;;;;;8.90;100.00;101596.66;4980439;28;20039;-66
2022/11/10 00:38:50;;;;;;;12.30;3.10;;;;;;;8.92;100.00;101604.47;4967924;28;20034;-66
2022/11/10 00:41:15;;;;;;;12.30;2.83;;;;;;;8.91;100.00;101608.75;4960549;28;20066;-66
2022/11/10 00:43:41;;;;;;;10.23;2.83;;;;;;;8.91;100.00;101620.78;4967395;28;20491;-66
2022/11/10 00:46:06;;;;;;;11.20;2.80;;;;;;;8.92;100.00;101622.56;4968592;28;20046;-66
2022/11/10 00:48:31;;;;;;;14.80;3.05;;;;;;;8.92;100.00;101614.81;4980622;28;20533;-66
2022/11/10 00:50:57;;;;;;;9.98;2.58;;;;;;;8.90;100.00;101617.31;4970358;28;20034;-66
2022/11/10 00:53:22;;;;;;;12.23;3.63;;;;;;;8.89;100.00;101623.28;4969353;28;20028;-66
2022/11/10 00:55:47;;;;;;;15.13;3.40;;;;;;;8.88;100.00;101619.84;4981086;28;20022;-66
2022/11/10 00:58:13;;;;;;;13.05;2.95;;;;;;;8.85;100.00;101623.97;4967430;28;20106;-66
2022/11/10 01:00:39;;;;;;;9.25;2.75;;;;;;;8.86;100.00;101617.97;4966692;28;20035;-66
2022/11/10 01:03:04;;;;;;;13.55;3.63;;;;;;;8.83;100.00;101603.16;4980885;28;20030;-66
2022/11/10 01:05:30;;;;;;;17.75;3.97;;;;;;;8.82;100.00;101610.84;4968536;28;20030;-66
2022/11/10 01:07:57;;;;;;;12.10;3.67;;;;;;;8.83;100.00;101621.25;4966391;28;20106;-66
2022/11/10 01:10:22;;;;;;;10.88;2.65;;;;;;;8.83;100.00;101625.56;4968942;28;20037;-66
2022/11/10 01:12:47;;;;;;;9.13;3.80;;;;;;;8.82;100.00;101622.09;4951359;28;20031;-66
2022/11/10 01:15:13;;;;;;;10.77;2.85;;;;;;;8.83;100.00;101626.44;4951560;28;20475;-66
2022/11/10 01:17:38;;;;;;;11.80;3.22;;;;;;;8.81;100.00;101633.25;4951712;28;20031;-66
2022/11/10 01:20:04;;;;;;;9.13;2.50;;;;;;;8.79;100.00;101624.53;4978151;28;20053;-66
2022/11/10 01:22:29;;;;;;;10.68;2.97;;;;;;;8.79;100.00;101632.28;4957189;28;20042;-66
2022/11/10 01:24:54;;;;;;;9.95;3.55;;;;;;;8.77;100.00;101644.22;4971302;28;20508;-66
2022/11/10 01:27:20;;;;;;;17.30;3.95;;;;;;;8.77;100.00;101646.81;4970592;28;20566;-66
2022/11/10 01:29:45;;;;;;;14.65;2.50;;;;;;;8.77;100.00;101650.28;4960978;28;20511;-66
2022/11/10 01:32:10;;;;;;;12.70;2.58;;;;;;;8.77;100.00;101662.31;4965902;28;20438;-66
2022/11/10 01:34:36;;;;;;;11.07;3.53;;;;;;;8.75;100.00;101664.81;4971098;28;20046;-66
2022/11/10 01:37:02;;;;;;;7.90;2.80;;;;;;;8.74;100.00;101662.16;4970685;28;20086;-66
2022/11/10 01:39:27;;;;;;;11.48;3.03;;;;;;;8.74;100.00;101662.16;4978745;28;20474;-66
2022/11/10 01:41:52;;;;;;;10.10;2.78;;;;;;;8.70;100.00;101660.22;4950721;28;20542;-66
2022/11/10 01:44:24;;;;;;;13.77;3.63;;;;;;;8.71;100.00;101667.16;4964360;28;20038;-66
2022/11/10 01:46:49;;;;;;;11.00;3.33;;;;;;;8.71;100.00;101661.97;4952048;28;20051;-66
2022/11/10 01:49:18;;;;;;;12.57;3.20;;;;;;;8.68;100.00;101660.13;4956731;28;20109;-66
2022/11/10 01:51:59;;;;;;;11.57;2.80;;;;;;;8.65;100.00;101653.09;4962287;28;20552;-66
2022/11/10 01:54:26;;;;;;;;;;;;;;;8.67;100.00;101653.16;4970777;28;20035;-66
2022/11/10 01:56:56;;;;;;;9.95;3.08;;;;;;;8.66;100.00;101659.16;4956705;28;19915;-66
2022/11/10 01:59:25;;;;;;;12.73;2.45;;;;;;;8.64;100.00;101661.66;4978591;28;20153;-66
2022/11/10 02:01:54;;;;;;;8.10;2.92;;;;;;;8.60;100.00;101670.06;4960519;28;20038;-66
2022/11/10 02:04:19;;;;;;;12.07;3.08;;;;;;;8.59;100.00;101659.63;4950245;28;20030;-66
2022/11/10 02:06:47;;;;;;;12.50;3.20;;;;;;;8.57;100.00;101659.56;4951132;28;20078;-66
2022/11/10 02:09:13;;;;;;;9.30;3.40;;;;;;;8.55;100.00;101658.56;4969489;28;20573;-66
2022/11/10 02:11:40;;;;;;;10.13;3.03;;;;;;;8.55;100.00;101661.13;4956071;28;20031;-66
2022/11/10 02:14:06;;;;;;;15.13;3.80;;;;;;;8.55;100.00;101655.97;4969875;28;20030;-66
2022/11/10 02:16:32;;;;;;;12.90;2.45;;;;;;;8.55;100.00;101665.41;4957003;28;20590;-66
2022/11/10 02:19:09;;;;;;;12.57;2.33;;;;;;;8.56;100.00;101665.56;4950025;28;20034;-66
2022/11/10 02:21:35;;;;;;;10.27;2.97;;;;;;;8.55;100.00;101660.25;4961815;28;20476;-66
2022/11/10 02:24:00;;;;;;;8.60;2.58;;;;;;;8.55;100.00;101674.06;4952124;28;20031;-66
2022/11/10 02:26:28;;;;;;;10.82;2.55;;;;;;;8.56;100.00;101673.31;4950449;28;20098;-66
2022/11/10 02:28:54;;;;;;;10.65;2.75;;;;;;;8.56;100.00;101678.47;4965668;28;20494;-66
2022/11/10 02:31:19;;;;;;;13.23;2.95;;;;;;;8.55;100.00;101679.22;4961410;28;20030;-66
2022/11/10 02:33:45;;;;;;;9.73;3.22;;;;;;;8.56;100.00;101693.06;4963815;28;20035;-66
2022/11/10 02:36:10;;;;;;;9.93;2.40;;;;;;;8.57;100.00;101695.72;4982694;28;20537;-66
2022/11/10 02:38:36;;;;;;;12.00;2.42;;;;;;;8.58;100.00;101705.25;4969819;28;20123;-66
2022/11/10 02:41:01;;;;;;;20.13;3.63;;;;;;;8.58;100.00;101710.41;4982386;28;20089;-66
2022/11/10 02:43:28;;;;;;;8.68;2.55;;;;;;;8.59;100.00;101724.22;4969736;28;20031;-66
2022/11/10 02:45:53;;;;;;;11.48;3.17;;;;;;;8.59;100.00;101727.72;4960576;28;20058;-66
2022/11/10 02:48:19;;;;;;;14.25;2.75;;;;;;;8.58;100.00;101723.34;4957824;28;20376;-66
2022/11/10 02:50:44;;;;;;;12.85;3.05;;;;;;;8.57;100.00;101710.34;4968678;28;20049;-66
2022/11/10 02:53:09;;;;;;;8.80;2.45;;;;;;;8.56;100.00;101721.50;4949823;28;20126;-66
2022/11/10 02:55:35;;;;;;;22.48;3.25;;;;;;;8.53;100.00;101717.00;4962421;28;20479;-66
2022/11/10 02:58:00;;;;;;;11.90;2.63;;;;;;;8.52;100.00;101717.81;4950077;28;20061;-66
2022/11/10 03:00:26;;;;;;;10.05;2.28;;;;;;;8.48;100.00;101714.19;4952334;28;20281;-66
2022/11/10 03:03:00;;;;;;;11.98;3.28;;;;;;;8.46;100.00;101709.72;4960421;28;20034;-66
2022/11/10 03:05:27;;;;;;;13.40;2.83;;;;;;;8.44;100.00;101725.13;4948773;28;20089;-66
2022/11/10 03:07:54;;;;;;;12.98;2.30;;;;;;;8.43;100.00;101725.94;4957129;28;20094;-66
2022/11/10 03:10:19;;;;;;;14.65;3.17;;;;;;;8.41;100.00;101728.47;4954499;28;20054;-66
2022/11/10 03:12:45;;;;;;;15.40;3.53;;;;;;;8.40;100.00;101724.06;4950802;28;20062;-66
2022/11/10 03:15:11;;;;;;;12.38;2.90;;;;;;;8.40;100.00;101734.41;4966756;28;20034;-66
2022/11/10 03:17:37;;;;;;;14.20;3.28;;;;;;;8.37;100.00;101733.34;4957651;28;20033;-66
2022/11/10 03:20:03;;;;;;;9.48;2.97;;;;;;;8.35;100.00;101729.78;4958620;28;20035;-66
2022/11/10 03:22:28;;;;;;;10.60;2.63;;;;;;;8.35;100.00;101737.53;4967561;28;20149;-66
2022/11/10 03:24:53;;;;;;;11.32;2.75;;;;;;;8.33;100.00;101737.44;4959047;28;20039;-65
2022/11/10 03:27:18;;;;;;;14.38;2.90;;;;;;;8.32;100.00;101746.00;4963759;28;20031;-66
2022/11/10 03:29:44;;;;;;;9.82;2.63;;;;;;;8.32;100.00;101745.13;4959316;28;20037;-66
2022/11/10 03:32:09;;;;;;;11.38;2.58;;;;;;;8.29;100.00;101748.44;4967545;28;20033;-66
2022/11/10 03:34:34;;;;;;;8.93;2.53;;;;;;;8.25;100.00;101749.06;4968998;28;20062;-66
2022/11/10 03:36:59;;;;;;;11.10;2.35;;;;;;;8.25;100.00;101754.22;4968500;28;20031;-66
2022/11/10 03:39:25;;;;;;;12.13;3.40;;;;;;;8.24;100.00;101757.63;4960375;28;20045;-66
2022/11/10 03:41:50;;;;;;;13.45;2.50;;;;;;;8.21;100.00;101772.91;4971493;28;20391;-66
2022/11/10 03:44:15;;;;;;;13.20;2.85;;;;;;;8.23;100.00;101772.22;4968812;28;20031;-66
2022/11/10 03:46:40;;;;;;;8.55;2.95;;;;;;;8.17;100.00;101770.16;4954860;28;20209;-66
2022/11/10 03:49:06;;;;;;;14.02;3.30;;;;;;;8.16;100.00;101778.72;4960183;28;20042;-66
2022/11/10 03:51:31;;;;;;;19.45;4.45;;;;;;;8.14;100.00;101779.44;4960226;28;20034;-66
2022/11/10 03:53:56;;;;;;;9.60;3.22;;;;;;;8.15;100.00;101786.38;4965282;28;20050;-66
2022/11/10 03:56:21;;;;;;;13.25;3.50;;;;;;;8.11;100.00;101793.03;4955217;28;20030;-66
2022/11/10 03:58:47;;;;;;;8.35;3.00;;;;;;;8.12;100.00;101791.34;4962220;28;20078;-66
2022/11/10 04:01:12;;;;;;;15.68;3.35;;;;;;;8.09;100.00;101789.50;4960411;28;20375;-66
2022/11/10 04:03:37;;;;;;;11.50;3.30;;;;;;;8.06;100.00;101784.16;4968191;28;20037;-65
2022/11/10 04:08:59;;;;;;;14.00;4.05;;;;;;;8.05;100.00;101796.19;4953578;28;20054;-66
2022/11/10 04:16:54;;;;;;;13.65;4.18;;;;;;;8.03;100.00;101809.78;4980926;28;20548;-66
2022/11/10 04:19:19;;;;;;;16.30;3.08;;;;;;;8.02;100.00;101813.19;4967898;28;20027;-66
2022/11/10 04:21:45;;;;;;;10.77;3.95;;;;;;;8.01;100.00;101817.44;4968252;28;20027;-66
2022/11/10 04:24:10;;;;;;;13.35;3.50;;;;;;;8.01;100.00;101826.88;4963722;28;20023;-65
2022/11/10 04:26:37;;;;;;;11.50;3.00;;;;;;;7.97;100.00;101824.94;4958646;28;20546;-65
2022/11/10 04:29:05;;;;;;;13.75;2.92;;;;;;;7.95;100.00;101829.97;4953955;28;20039;-66
2022/11/10 04:31:32;;;;;;;15.32;3.08;;;;;;;7.93;100.00;101829.03;4966509;28;20027;-66
2022/11/10 04:33:58;;;;;;;10.88;3.28;;;;;;;7.92;100.00;101833.28;4966897;28;20038;-65
2022/11/10 04:36:29;;;;;;;13.00;2.72;;;;;;;7.92;100.00;101835.88;4979327;28;20069;-66
2022/11/10 04:38:54;;;;;;;9.60;3.05;;;;;;;7.92;100.00;101838.44;4967604;28;20027;-66
2022/11/10 04:41:21;;;;;;;8.77;2.33;;;;;;;7.91;100.00;101849.59;4965668;28;20019;-65
2022/11/10 04:43:46;;;;;;;11.90;2.80;;;;;;;7.92;100.00;101847.88;4967553;28;20031;-66
2022/11/10 04:46:36;;;;;;;12.60;3.65;;;;;;;7.87;100.00;101852.78;4967465;28;20206;-65
2022/11/10 04:49:03;;;;;;;14.85;2.60;;;;;;;7.88;100.00;101864.00;4983757;28;20060;-65
2022/11/10 04:51:30;;;;;;;10.80;3.33;;;;;;;7.88;100.00;101877.78;4961198;28;20101;-66
2022/11/10 04:53:56;;;;;;;11.60;3.50;;;;;;;7.88;100.00;101876.91;4983521;28;20456;-65
2022/11/10 04:56:23;;;;;;;16.85;3.53;;;;;;;7.86;100.00;101881.09;4971217;28;20058;-65
2022/11/10 04:58:49;;;;;;;11.02;2.45;;;;;;;7.87;100.00;101880.28;4953682;28;20023;-66
2022/11/10 05:01:17;;;;;;;15.80;3.47;;;;;;;7.87;100.00;101880.28;4965428;28;20438;-66
2022/11/10 05:03:43;;;;;;;11.63;2.97;;;;;;;7.85;100.00;101881.88;4971046;28;20037;-66
2022/11/10 05:06:09;;;;;;;14.95;2.60;;;;;;;7.87;100.00;101888.00;4971049;28;20031;-66
2022/11/10 05:08:36;;;;;;;11.18;3.08;;;;;;;7.86;100.00;101881.94;4970433;28;20034;-66
2022/11/10 05:11:02;;;;;;;10.50;3.13;;;;;;;7.86;100.00;101888.81;4970842;28;20026;-66
2022/11/10 05:13:27;;;;;;;10.93;3.08;;;;;;;7.85;100.00;101897.34;4971354;28;20089;-66
2022/11/10 05:15:52;;;;;;;15.02;3.72;;;;;;;7.83;100.00;101892.09;4970993;28;20022;-66
2022/11/10 05:18:18;;;;;;;17.13;3.30;;;;;;;7.80;100.00;101891.91;4970977;28;20049;-66
2022/11/10 05:20:43;;;;;;;12.25;3.33;;;;;;;7.78;100.00;101902.16;4968909;28;20019;-65
2022/11/10 05:25:52;;;;;;;10.32;3.22;;;;;;;7.76;100.00;101902.84;4973309;28;20050;-65
2022/11/10 05:28:17;;;;;;;16.48;3.08;;;;;;;7.74;100.00;101899.28;4970360;28;20391;-65
2022/11/10 05:30:43;;;;;;;13.65;3.17;;;;;;;7.72;100.00;101898.31;4967565;28;20395;-65
2022/11/10 05:33:09;;;;;;;11.30;2.88;;;;;;;7.68;100.00;101899.81;4961565;28;20030;-65
2022/11/10 05:35:35;;;;;;;9.82;2.85;;;;;;;7.65;100.00;101900.50;4970348;28;20141;-65
2022/11/10 05:38:01;;;;;;;12.02;3.22;;;;;;;7.65;100.00;101900.50;4958082;28;20352;-65
2022/11/10 05:40:27;;;;;;;10.50;2.95;;;;;;;7.64;100.00;101892.69;4971570;28;20026;-65
2022/11/10 05:42:52;;;;;;;13.93;3.13;;;;;;;7.63;100.00;101891.78;4970348;28;20366;-66
2022/11/10 05:45:23;;;;;;;9.07;2.70;;;;;;;7.60;100.00;101894.19;4968505;28;20106;-65
2022/11/10 05:47:51;;;;;;;11.88;3.20;;;;;;;7.59;100.00;101892.38;4955543;28;20051;-66
2022/11/10 05:50:19;;;;;;;10.40;2.70;;;;;;;7.58;100.00;101908.66;4960318;28;20231;-65
2022/11/10 05:52:46;;;;;;;14.75;3.60;;;;;;;7.56;100.00;101912.84;4969446;28;20525;-66
2022/11/10 05:55:12;;;;;;;10.05;3.25;;;;;;;7.57;100.00;101927.53;4969475;28;20033;-66
2022/11/10 05:57:41;;;;;;;13.07;3.67;;;;;;;7.56;100.00;101920.56;4975143;28;20085;-66
2022/11/10 06:00:08;;;;;;;13.75;4.30;;;;;;;7.57;100.00;101922.38;4966389;28;20039;-66
2022/11/10 06:02:34;;;;;;;9.77;3.33;;;;;;;7.55;100.00;101919.72;4960392;28;20035;-66
2022/11/10 06:04:59;;;;;;;11.43;2.53;;;;;;;7.56;100.00;101936.06;4978943;28;20029;-65
2022/11/10 06:07:24;;;;;;;12.30;2.17;;;;;;;7.55;100.00;101935.19;4956889;28;20377;-66
2022/11/10 06:09:49;;;;;;;13.32;3.42;;;;;;;7.54;100.00;101932.47;4950189;28;20038;-66
2022/11/10 06:12:15;;;;;;;9.70;2.28;;;;;;;7.54;100.00;101945.38;4962971;28;20379;-66
2022/11/10 06:14:40;;;;;;;12.65;3.25;;;;;;;7.54;100.00;101950.53;4969490;28;20077;-65
2022/11/10 06:17:05;;;;;;;9.05;2.83;;;;;;;7.55;100.00;101954.94;4963613;28;20038;-66
2022/11/10 06:19:30;;;;;;;15.13;2.60;;;;;;;7.52;100.00;101954.75;4958226;28;20086;-66
2022/11/10 06:21:56;;;;;;;10.45;2.95;;;;;;;7.51;100.00;101952.94;4950695;28;20067;-65
2022/11/10 06:24:21;;;;;;;8.13;2.22;;;;;;;7.48;100.00;101961.41;4952275;28;20058;-65
2022/11/10 06:26:46;;;;;;;13.25;2.78;;;;;;;7.46;100.00;101955.25;4949311;28;20027;-65
2022/11/10 06:29:12;;;;;;;7.97;2.40;;;;;;;7.45;100.00;101954.34;4952453;28;20081;-66
2022/11/10 06:31:37;;;;;;;14.93;2.95;;;;;;;7.41;100.00;101957.50;4954211;28;20023;-66
2022/11/10 06:34:02;;;;;;;12.15;3.20;;;;;;;7.40;100.00;101962.56;4953036;28;20051;-66
2022/11/10 06:36:27;;;;;;;13.65;2.92;;;;;;;7.39;100.00;101973.69;4956726;28;20027;-66
2022/11/10 06:38:53;;;;;;;13.95;3.97;;;;;;;7.38;100.00;101972.81;4953258;28;20035;-66
2022/11/10 06:41:18;;;;;;;20.25;4.78;;;;;;;7.37;100.00;101981.34;4949639;28;20085;-65
2022/11/10 06:43:43;;;;;;;7.72;3.17;;;;;;;7.37;100.00;101983.94;4954559;28;20030;-66
2022/11/10 06:46:08;;;;;;;10.52;3.10;;;;;;;7.37;100.00;101991.66;4950220;28;20062;-65
2022/11/10 06:48:34;;;;;;;11.23;3.70;;;;;;;7.37;100.00;101995.91;4951447;28;20125;-66
2022/11/10 06:51:02;;;;;;;19.75;3.42;;;;;;;7.35;100.00;102003.56;4950592;28;20038;-65
2022/11/10 06:53:28;;;;;;;13.73;3.80;;;;;;;7.35;100.00;102011.28;4963302;28;20434;-65
2022/11/10 06:55:53;;;;;;;13.52;3.72;;;;;;;7.35;100.00;102013.88;4973400;28;20062;-66
2022/11/10 06:58:18;;;;;;;10.98;3.10;;;;;;;7.35;100.00;102008.72;4957682;28;20030;-66
2022/11/10 07:00:44;;;;;;;13.40;3.72;;;;;;;7.35;100.00;102013.88;4950505;28;20125;-66
2022/11/10 07:03:12;;;;;;;13.25;3.75;;;;;;;7.36;100.00;102025.97;4952636;28;20181;-66
2022/11/10 07:05:38;;;;;;;10.10;3.47;;;;;;;7.36;100.00;102020.81;4963227;28;20057;-66
2022/11/10 07:08:17;;;;;;;9.98;3.00;;;;;;;7.37;100.00;102030.34;4983287;28;20537;-66
2022/11/10 07:10:53;;;;;;;15.55;3.50;;;;;;;7.38;100.00;102028.63;4969998;28;20034;-66
2022/11/10 07:13:19;;;;;;;15.80;3.53;;;;;;;7.38;100.00;102034.69;4963143;28;20098;-66
2022/11/10 07:15:44;;;;;;;14.05;3.55;;;;;;;7.40;100.00;102037.38;4971693;28;20029;-65
2022/11/10 07:18:10;;;;;;;13.57;3.67;;;;;;;7.39;100.00;102033.91;4966708;28;20025;-66
2022/11/10 07:20:36;;;;;;;14.77;3.58;;;;;;;7.42;100.00;102044.44;4962499;28;20027;-66
2022/11/10 07:23:06;;;;;;;11.60;3.45;;;;;;;7.44;100.00;102055.75;4973790;28;20109;-66
2022/11/10 07:25:34;;;;;;;18.50;4.35;;;;;;;7.46;100.00;102048.09;4959173;28;20031;-66
2022/11/10 07:28:01;;;;;;;12.57;3.65;;;;;;;7.49;100.00;102060.28;4967032;28;20026;-66
2022/11/10 07:30:28;;;;;;;12.15;3.13;;;;;;;7.53;100.00;102062.28;4968604;28;20030;-66
2022/11/10 07:32:58;;;;;;;16.20;3.63;;;;;;;7.56;100.00;102078.84;4959678;28;20030;-66
2022/11/10 07:35:23;;;;;;;15.45;3.78;;;;;;;7.60;100.00;102082.50;4960305;28;20624;-66
2022/11/10 07:37:49;;;;;;;11.30;3.38;;;;;;;7.62;100.00;102085.19;4967346;28;20050;-66
2022/11/10 07:40:14;;;;;;;11.40;3.00;;;;;;;7.63;100.00;102082.69;4971227;28;20375;-66
2022/11/10 07:42:39;;;;;;;16.23;3.45;;;;;;;7.67;100.00;102087.28;4969721;28;20026;-66
2022/11/10 07:45:05;;;;;;;9.52;3.22;;;;;;;7.71;100.00;102075.47;4966453;28;20462;-66
2022/11/10 07:47:31;;;;;;;13.07;3.60;;;;;;;7.75;100.00;102081.72;4972492;28;20014;-66
2022/11/10 07:49:56;;;;;;;14.60;3.35;;;;;;;7.77;100.00;102077.53;4969055;28;20018;-66
2022/11/10 07:52:21;;;;;;;12.52;3.40;;;;;;;7.80;100.00;102083.78;4968720;28;20038;-66
2022/11/10 07:54:46;;;;;;;14.48;2.95;;;;;;;7.84;100.00;102077.13;4968163;28;20098;-66
2022/11/10 07:57:12;;;;;;;11.85;3.58;;;;;;;7.89;100.00;102087.75;4958589;28;20025;-66
2022/11/10 07:59:37;;;;;;;12.45;3.08;;;;;;;7.93;100.00;102088.00;4969515;28;20060;-66
2022/11/10 08:02:02;;;;;;;9.40;2.65;;;;;;;7.97;100.00;102083.94;4954332;28;20038;-66
2022/11/10 08:04:27;;;;;;;9.07;2.72;;;;;;;7.99;100.00;102104.69;4959700;28;20502;-67
2022/11/10 08:06:53;;;;;;;9.50;2.95;;;;;;;8.03;100.00;102104.09;4951724;28;20085;-67
2022/11/10 08:09:18;;;;;;;12.80;4.30;;;;;;;8.08;100.00;102102.69;4953488;28;20098;-66
2022/11/10 08:11:44;;;;;;;12.70;3.17;;;;;;;8.12;100.00;102107.25;4949856;28;20030;-66
2022/11/10 08:14:09;;;;;;;17.98;3.65;;;;;;;8.22;100.00;102116.44;4949350;28;20151;-67
2022/11/10 08:16:34;;;;;;;17.02;4.68;;;;;;;8.37;100.00;102132.03;4952915;28;20114;-66
2022/11/10 08:19:00;;;;;;;18.17;3.80;;;;;;;8.46;100.00;102125.63;4952407;28;20077;-66
2022/11/10 08:21:25;;;;;;;13.73;2.60;;;;;;;8.50;100.00;102130.19;4955021;28;20027;-66
2022/11/10 08:23:50;;;;;;;14.23;3.58;;;;;;;8.54;100.00;102129.59;4964488;28;20034;-67
2022/11/10 08:26:16;;;;;;;14.23;3.35;;;;;;;8.61;100.00;102125.72;4958135;28;20023;-66
2022/11/10 08:28:43;;;;;;;13.45;3.90;;;;;;;8.67;100.00;102130.38;4957112;28;20468;-66
2022/11/10 08:31:08;;;;;;;15.57;3.10;;;;;;;8.73;100.00;102131.63;4966218;28;20023;-66
2022/11/10 08:33:33;;;;;;;11.43;2.97;;;;;;;8.80;100.00;102138.06;4956428;28;20126;-66
2022/11/10 08:36:00;;;;;;;15.82;3.05;;;;;;;8.85;100.00;102139.22;4954935;28;20271;-67
2022/11/10 08:38:25;;;;;;;11.13;2.47;;;;;;;8.92;100.00;102143.09;4957279;28;20211;-67
2022/11/10 08:40:51;;;;;;;16.20;4.40;;;;;;;8.98;100.00;102142.53;4956127;28;20113;-67
2022/11/10 08:43:17;;;;;;;13.77;2.85;;;;;;;9.01;100.00;102130.69;4964597;28;20101;-66
2022/11/10 08:45:43;;;;;;;14.45;3.00;;;;;;;9.03;100.00;102125.59;4954954;28;20043;-66
2022/11/10 08:48:11;;;;;;;13.48;2.78;;;;;;;9.05;100.00;102129.16;4957305;28;20026;-66
2022/11/10 08:50:37;;;;;;;16.52;3.10;;;;;;;9.07;100.00;102143.09;4961454;28;20018;-66
2022/11/10 08:53:05;;;;;;;16.17;3.83;;;;;;;9.11;100.00;102149.34;4958174;28;20031;-66
2022/11/10 08:55:31;;;;;;;12.80;2.70;;;;;;;9.13;100.00;102158.97;4955434;28;20553;-67
2022/11/10 08:57:59;;;;;;;12.50;2.78;;;;;;;9.18;100.00;102150.56;4964817;28;20034;-66
2022/11/10 09:00:25;;;;;;;13.38;3.53;;;;;;;9.22;100.00;102155.13;4959565;28;20159;-66
2022/11/10 09:02:50;;;;;;;11.48;3.60;;;;;;;9.27;100.00;102156.28;4984969;28;20088;-66
2022/11/10 09:05:16;;;;;;;9.77;3.03;;;;;;;9.32;100.00;102164.31;4991243;28;20139;-66
2022/11/10 09:07:43;;;;;;;13.65;3.20;;;;;;;9.35;100.00;102162.78;4974465;28;20031;-66
2022/11/10 09:10:12;;;;;;;12.70;2.75;;;;;;;9.41;100.00;102169.16;4958624;28;20432;-67
2022/11/10 09:12:37;;;;;;;14.68;3.55;;;;;;;9.45;100.00;102171.09;4957041;28;20022;-68
2022/11/10 09:15:03;;;;;;;14.00;4.43;;;;;;;9.49;100.00;102178.25;4952932;28;20645;-68
2022/11/10 09:17:30;;;;;;;9.15;2.72;;;;;;;9.53;100.00;102174.16;4952809;28;20075;-68
2022/11/10 09:19:55;;;;;;;10.90;3.50;;;;;;;9.57;100.00;102184.75;4953431;28;20077;-68
2022/11/10 09:22:21;;;;;;;14.30;2.95;;;;;;;9.59;100.00;102180.56;4954348;28;20022;-68
2022/11/10 09:24:46;;;;;;;11.75;3.35;;;;;;;9.64;100.00;102188.59;4955474;28;20496;-66
2022/11/10 09:27:11;;;;;;;11.48;3.70;;;;;;;9.70;100.00;102188.03;4958087;28;20293;-66
2022/11/10 09:29:37;;;;;;;9.15;2.75;;;;;;;9.75;100.00;102181.44;4951906;28;20027;-65
2022/11/10 09:32:02;;;;;;;16.92;3.15;;;;;;;9.79;100.00;102180.81;4956656;28;20075;-65
2022/11/10 09:34:27;;;;;;;11.70;3.17;;;;;;;9.87;100.00;102185.53;4962515;28;20038;-66
2022/11/10 09:36:52;;;;;;;13.60;3.50;;;;;;;9.90;100.00;102180.50;4951172;28;20019;-65
2022/11/10 09:39:18;;;;;;;15.55;3.22;;;;;;;9.94;100.00;102177.31;4957165;28;20114;-65
2022/11/10 09:41:44;;;;;;;10.98;2.28;;;;;;;9.99;100.00;102183.63;4975560;28;20506;-65
2022/11/10 09:44:26;;;;;;;13.48;3.08;;;;;;;10.06;100.00;102184.84;4952517;28;20034;-66
2022/11/10 09:47:15;;;;;;;11.15;3.35;;;;;;;10.12;100.00;102186.91;4953219;28;20316;-65
2022/11/10 09:49:57;;;;;;;9.57;2.60;;;;;;;10.18;100.00;102198.50;4954256;28;20024;-65
2022/11/10 09:52:28;;;;;;;10.90;3.15;;;;;;;10.24;100.00;102191.84;4953309;28;20034;-66
2022/11/10 09:54:57;;;;;;;;;;;;;;;10.28;100.00;102192.13;4966130;28;20070;-66
2022/11/10 09:57:25;;;;;;;20.67;3.53;;;;;;;10.38;100.00;102190.06;4973501;28;20378;-65
2022/11/10 09:59:50;;;;;;;12.13;2.70;;;;;;;10.41;100.00;102192.78;4960335;28;20501;-66
2022/11/10 10:02:29;;;;;;;12.65;3.22;;;;;;;10.49;100.00;102186.34;4974893;28;20019;-66
2022/11/10 10:05:05;;;;;;;12.55;3.05;;;;;;;10.52;100.00;102189.09;4968811;28;20109;-66
2022/11/10 10:07:46;;;;;;;12.60;2.90;;;;;;;10.60;100.00;102196.41;4957694;28;20027;-66
2022/11/10 10:10:21;;;;;;;7.38;2.78;;;;;;;10.61;100.00;102193.91;4977428;28;20061;-66
2022/11/10 10:13:06;;;;;;;14.40;3.22;;;;;;;10.69;100.00;102207.28;4978543;28;20035;-66
2022/11/10 10:15:54;;;;;;;12.40;3.00;;;;;;;10.75;100.00;102202.44;4978264;28;20038;-66
2022/11/10 10:18:44;;;;;;;13.90;3.13;;;;;;;10.80;100.00;102203.56;4963845;28;20114;-66
2022/11/10 10:21:30;;;;;;;11.50;2.63;;;;;;;10.88;100.00;102208.25;4972431;28;20106;-66
2022/11/10 10:24:00;;;;;;;9.20;2.65;;;;;;;10.93;100.00;102210.28;4969940;28;20136;-66
2022/11/10 10:26:32;;;;;;;8.27;2.33;;;;;;;11.03;100.00;102218.53;4970167;28;20422;-66
2022/11/10 10:29:08;;;;;;;9.07;2.38;;;;;;;11.09;100.00;102218.88;4976410;28;20084;-65
2022/11/10 10:31:39;;;;;;;14.43;3.03;;;;;;;11.17;100.00;102221.88;4972344;28;20092;-65
2022/11/10 10:34:11;;;;;;;9.98;2.38;;;;;;;11.24;100.00;102225.66;4966547;28;20035;-66
2022/11/10 10:36:37;;;;;;;10.35;2.53;;;;;;;11.27;100.00;102229.31;4977768;28;20415;-66
2022/11/10 10:39:15;;;;;;;6.85;2.45;;;;;;;11.31;100.00;102245.03;4968185;28;20035;-65
2022/11/10 10:41:42;;;;;;;12.27;2.10;;;;;;;11.37;100.00;102245.34;4957879;28;20031;-65
2022/11/10 10:44:16;;;;;;;17.83;2.83;;;;;;;11.40;100.00;102245.50;4956408;28;20081;-66
2022/11/10 10:46:57;;;;;;;8.52;2.22;;;;;;;11.46;100.00;102256.19;4959687;28;20073;-65
2022/11/10 10:49:24;;;;;;;9.88;2.08;;;;;;;11.52;100.00;102260.81;4964159;28;20031;-66
2022/11/10 10:52:01;;;;;;;9.88;2.33;;;;;;;11.52;100.00;102282.47;4969897;28;20037;-66
2022/11/10 10:54:29;;;;;;;9.35;2.33;;;;;;;11.54;100.00;102269.56;4972055;28;20070;-66
2022/11/10 10:57:22;;;;;;;15.60;2.67;;;;;;;11.58;100.00;102265.41;4970642;28;20023;-66
2022/11/10 10:59:48;;;;;;;10.38;2.15;;;;;;;11.63;100.00;102263.94;4958670;28;20039;-65
2022/11/10 11:02:22;;;;;;;8.48;1.67;;;;;;;11.68;100.00;102277.16;4973566;28;20073;-66
2022/11/10 11:04:48;;;;;;;10.75;2.72;;;;;;;11.74;100.00;102267.97;4956922;28;20026;-66
2022/11/10 11:07:23;;;;;;;7.22;2.45;;;;;;;11.82;100.00;102264.88;4961937;28;20038;-66
2022/11/10 11:09:48;;;;;;;10.13;2.80;;;;;;;11.87;100.00;102258.19;4954383;28;20689;-65
2022/11/10 11:12:16;;;;;;;7.43;2.50;;;;;;;11.91;100.00;102260.13;4952246;28;20383;-66
2022/11/10 11:14:42;;;;;;;7.93;2.13;;;;;;;11.95;100.00;102254.25;4957226;28;20020;-66
2022/11/10 11:17:20;;;;;;;6.97;1.77;;;;;;;12.02;100.00;102258.03;4955557;28;20077;-66
2022/11/10 11:19:46;;;;;;;10.15;1.90;;;;;;;12.09;100.00;102260.16;4957120;28;20491;-66
2022/11/10 11:22:44;;;;;;;9.20;2.42;;;;;;;12.17;100.00;102263.13;4959530;28;20427;-66
2022/11/10 11:25:21;;;;;;;9.23;1.73;;;;;;;12.30;100.00;102266.31;4954247;28;20475;-66
2022/11/10 11:28:03;;;;;;;6.15;2.15;;;;;;;12.40;100.00;102265.94;4950594;28;20454;-65
2022/11/10 11:30:53;;;;;;;9.02;1.90;;;;;;;12.53;100.00;102256.13;4968112;28;20057;-65
2022/11/10 11:33:28;;;;;;;6.38;1.55;;;;;;;12.67;100.00;102261.94;4970128;28;20514;-65
2022/11/10 11:36:06;;;;;;;10.13;2.40;;;;;;;12.78;100.00;102272.84;4974644;28;20019;-65